sensor_id;sensor_type;location;lat;lon;timestamp;temperature;humidity
27890;DHT22;15238;49.082;9.102;2022-07-23T00:01:09;24.80;91.10
27890;DHT22;15238;49.082;9.102;2022-07-23T00:03:09;24.80;91.00
27890;DHT22;15238;49.082;9.102;2022-07-23T00:05:10;24.80;91.00
27890;DHT22;15238;49.082;9.102;2022-07-23T00:07:11;24.80;90.80
27890;DHT22;15238;49.082;9.102;2022-07-23T00:09:11;24.80;90.60
27890;DHT22;15238;49.082;9.102;2022-07-23T00:11:12;24.80;90.50
27890;DHT22;15238;49.082;9.102;2022-07-23T00:13:12;24.80;90.50
27890;DHT22;15238;49.082;9.102;2022-07-23T00:15:13;24.80;90.50
27890;DHT22;15238;49.082;9.102;2022-07-23T00:17:13;24.80;90.10
27890;DHT22;15238;49.082;9.102;2022-07-23T00:19:14;24.90;90.20
27890;DHT22;15238;49.082;9.102;2022-07-23T00:21:14;24.90;90.20
27890;DHT22;15238;49.082;9.102;2022-07-23T00:23:15;24.90;90.10
27890;DHT22;15238;49.082;9.102;2022-07-23T00:25:16;24.90;89.50
27890;DHT22;15238;49.082;9.102;2022-07-23T00:27:16;24.90;89.10
27890;DHT22;15238;49.082;9.102;2022-07-23T00:29:17;25.00;89.30
27890;DHT22;15238;49.082;9.102;2022-07-23T00:31:17;25.00;88.60
27890;DHT22;15238;49.082;9.102;2022-07-23T00:33:18;25.00;88.10
27890;DHT22;15238;49.082;9.102;2022-07-23T00:35:22;25.00;88.40
27890;DHT22;15238;49.082;9.102;2022-07-23T00:37:23;25.00;88.70
27890;DHT22;15238;49.082;9.102;2022-07-23T00:39:24;25.00;89.50
27890;DHT22;15238;49.082;9.102;2022-07-23T00:41:24;25.00;90.30
27890;DHT22;15238;49.082;9.102;2022-07-23T00:43:25;24.90;90.30
27890;DHT22;15238;49.082;9.102;2022-07-23T00:45:26;24.80;90.40
27890;DHT22;15238;49.082;9.102;2022-07-23T00:47:26;24.80;90.50
27890;DHT22;15238;49.082;9.102;2022-07-23T00:49:28;24.70;90.50
27890;DHT22;15238;49.082;9.102;2022-07-23T00:51:29;24.70;90.60
27890;DHT22;15238;49.082;9.102;2022-07-23T00:53:30;24.70;90.60
27890;DHT22;15238;49.082;9.102;2022-07-23T00:55:32;24.70;90.30
27890;DHT22;15238;49.082;9.102;2022-07-23T00:57:33;24.60;90.20
27890;DHT22;15238;49.082;9.102;2022-07-23T00:59:33;24.60;90.20
27890;DHT22;15238;49.082;9.102;2022-07-23T01:01:34;24.60;90.40
27890;DHT22;15238;49.082;9.102;2022-07-23T01:03:35;24.60;90.60
27890;DHT22;15238;49.082;9.102;2022-07-23T01:05:35;24.50;90.70
27890;DHT22;15238;49.082;9.102;2022-07-23T01:07:36;24.40;90.90
27890;DHT22;15238;49.082;9.102;2022-07-23T01:09:38;24.40;91.00
27890;DHT22;15238;49.082;9.102;2022-07-23T01:11:39;24.40;91.20
27890;DHT22;15238;49.082;9.102;2022-07-23T01:13:42;24.30;91.20
27890;DHT22;15238;49.082;9.102;2022-07-23T01:15:43;24.30;91.50
27890;DHT22;15238;49.082;9.102;2022-07-23T01:17:44;24.20;91.40
27890;DHT22;15238;49.082;9.102;2022-07-23T01:19:44;24.20;91.70
27890;DHT22;15238;49.082;9.102;2022-07-23T01:21:47;24.10;91.70
27890;DHT22;15238;49.082;9.102;2022-07-23T01:23:48;24.10;91.70
27890;DHT22;15238;49.082;9.102;2022-07-23T01:25:52;24.00;91.70
27890;DHT22;15238;49.082;9.102;2022-07-23T01:27:53;24.00;91.80
27890;DHT22;15238;49.082;9.102;2022-07-23T01:29:55;24.00;91.90
27890;DHT22;15238;49.082;9.102;2022-07-23T01:31:57;24.00;92.00
27890;DHT22;15238;49.082;9.102;2022-07-23T01:33:57;24.00;92.00
27890;DHT22;15238;49.082;9.102;2022-07-23T01:35:58;23.90;92.10
27890;DHT22;15238;49.082;9.102;2022-07-23T01:37:58;23.90;92.20
27890;DHT22;15238;49.082;9.102;2022-07-23T01:39:59;23.80;92.30
27890;DHT22;15238;49.082;9.102;2022-07-23T01:41:59;23.80;92.40
27890;DHT22;15238;49.082;9.102;2022-07-23T01:44:00;23.70;92.70
27890;DHT22;15238;49.082;9.102;2022-07-23T01:46:00;23.70;92.90
27890;DHT22;15238;49.082;9.102;2022-07-23T01:48:01;23.60;93.30
27890;DHT22;15238;49.082;9.102;2022-07-23T01:50:02;23.50;93.20
27890;DHT22;15238;49.082;9.102;2022-07-23T01:52:02;23.40;93.40
27890;DHT22;15238;49.082;9.102;2022-07-23T01:54:06;23.40;93.80
27890;DHT22;15238;49.082;9.102;2022-07-23T01:56:07;23.30;93.90
27890;DHT22;15238;49.082;9.102;2022-07-23T01:58:08;23.30;94.10
27890;DHT22;15238;49.082;9.102;2022-07-23T02:00:09;23.20;94.20
27890;DHT22;15238;49.082;9.102;2022-07-23T02:02:09;23.20;94.30
27890;DHT22;15238;49.082;9.102;2022-07-23T02:04:10;23.20;94.50
27890;DHT22;15238;49.082;9.102;2022-07-23T02:06:10;23.10;94.70
27890;DHT22;15238;49.082;9.102;2022-07-23T02:08:11;23.20;94.70
27890;DHT22;15238;49.082;9.102;2022-07-23T02:10:11;23.20;94.90
27890;DHT22;15238;49.082;9.102;2022-07-23T02:12:12;23.20;94.80
27890;DHT22;15238;49.082;9.102;2022-07-23T02:14:13;23.20;94.90
27890;DHT22;15238;49.082;9.102;2022-07-23T02:16:14;23.20;94.80
27890;DHT22;15238;49.082;9.102;2022-07-23T02:18:14;23.20;95.00
27890;DHT22;15238;49.082;9.102;2022-07-23T02:20:15;23.20;95.00
27890;DHT22;15238;49.082;9.102;2022-07-23T02:22:15;23.20;95.10
27890;DHT22;15238;49.082;9.102;2022-07-23T02:24:16;23.10;95.20
27890;DHT22;15238;49.082;9.102;2022-07-23T02:26:17;23.10;95.40
27890;DHT22;15238;49.082;9.102;2022-07-23T02:28:17;23.00;95.50
27890;DHT22;15238;49.082;9.102;2022-07-23T02:30:18;23.00;95.60
27890;DHT22;15238;49.082;9.102;2022-07-23T02:32:18;23.00;95.80
27890;DHT22;15238;49.082;9.102;2022-07-23T02:34:19;23.00;96.10
27890;DHT22;15238;49.082;9.102;2022-07-23T02:36:19;23.00;96.30
27890;DHT22;15238;49.082;9.102;2022-07-23T02:38:20;23.00;96.50
27890;DHT22;15238;49.082;9.102;2022-07-23T02:40:20;23.00;96.90
27890;DHT22;15238;49.082;9.102;2022-07-23T02:42:21;23.00;97.10
27890;DHT22;15238;49.082;9.102;2022-07-23T02:44:24;22.90;97.20
27890;DHT22;15238;49.082;9.102;2022-07-23T02:46:24;22.90;97.50
27890;DHT22;15238;49.082;9.102;2022-07-23T02:48:25;23.00;97.60
27890;DHT22;15238;49.082;9.102;2022-07-23T02:50:25;22.90;97.80
27890;DHT22;15238;49.082;9.102;2022-07-23T02:52:26;22.80;98.10
27890;DHT22;15238;49.082;9.102;2022-07-23T02:54:26;22.80;98.50
27890;DHT22;15238;49.082;9.102;2022-07-23T02:56:27;22.70;98.70
27890;DHT22;15238;49.082;9.102;2022-07-23T02:58:27;22.80;99.00
27890;DHT22;15238;49.082;9.102;2022-07-23T03:00:28;22.70;99.10
27890;DHT22;15238;49.082;9.102;2022-07-23T03:02:28;22.70;99.30
27890;DHT22;15238;49.082;9.102;2022-07-23T03:04:29;22.70;99.60
27890;DHT22;15238;49.082;9.102;2022-07-23T03:06:30;22.70;99.70
27890;DHT22;15238;49.082;9.102;2022-07-23T03:08:30;22.70;99.70
27890;DHT22;15238;49.082;9.102;2022-07-23T03:10:31;22.60;99.60
27890;DHT22;15238;49.082;9.102;2022-07-23T03:12:31;22.60;99.60
27890;DHT22;15238;49.082;9.102;2022-07-23T03:14:32;22.60;99.70
27890;DHT22;15238;49.082;9.102;2022-07-23T03:16:33;22.60;99.50
27890;DHT22;15238;49.082;9.102;2022-07-23T03:18:33;22.70;99.60
27890;DHT22;15238;49.082;9.102;2022-07-23T03:20:34;22.60;99.60
27890;DHT22;15238;49.082;9.102;2022-07-23T03:22:34;22.60;99.60
27890;DHT22;15238;49.082;9.102;2022-07-23T03:24:35;22.70;99.80
27890;DHT22;15238;49.082;9.102;2022-07-23T03:26:54;22.70;99.80
27890;DHT22;15238;49.082;9.102;2022-07-23T03:28:54;22.70;99.80
27890;DHT22;15238;49.082;9.102;2022-07-23T03:30:55;22.70;99.90
27890;DHT22;15238;49.082;9.102;2022-07-23T03:32:55;22.70;99.90
27890;DHT22;15238;49.082;9.102;2022-07-23T03:34:56;22.70;99.90
27890;DHT22;15238;49.082;9.102;2022-07-23T03:36:56;22.60;99.90
27890;DHT22;15238;49.082;9.102;2022-07-23T03:38:57;22.60;99.90
27890;DHT22;15238;49.082;9.102;2022-07-23T03:40:57;22.60;99.90
27890;DHT22;15238;49.082;9.102;2022-07-23T03:42:58;22.60;99.90
27890;DHT22;15238;49.082;9.102;2022-07-23T03:44:58;22.50;99.90
27890;DHT22;15238;49.082;9.102;2022-07-23T03:46:59;22.50;99.90
27890;DHT22;15238;49.082;9.102;2022-07-23T03:48:59;22.40;99.90
27890;DHT22;15238;49.082;9.102;2022-07-23T03:51:00;22.40;99.90
27890;DHT22;15238;49.082;9.102;2022-07-23T03:53:01;22.30;99.90
27890;DHT22;15238;49.082;9.102;2022-07-23T03:55:02;22.20;99.90
27890;DHT22;15238;49.082;9.102;2022-07-23T03:57:03;22.10;99.90
27890;DHT22;15238;49.082;9.102;2022-07-23T03:59:03;22.00;99.90
27890;DHT22;15238;49.082;9.102;2022-07-23T04:01:04;22.00;99.90
27890;DHT22;15238;49.082;9.102;2022-07-23T04:03:05;21.90;99.90
27890;DHT22;15238;49.082;9.102;2022-07-23T04:05:06;21.90;99.90
27890;DHT22;15238;49.082;9.102;2022-07-23T04:07:06;21.80;99.90
27890;DHT22;15238;49.082;9.102;2022-07-23T04:09:08;21.80;99.90
27890;DHT22;15238;49.082;9.102;2022-07-23T04:11:08;21.80;99.90
27890;DHT22;15238;49.082;9.102;2022-07-23T04:13:09;21.80;99.90
27890;DHT22;15238;49.082;9.102;2022-07-23T04:15:09;21.80;99.90
27890;DHT22;15238;49.082;9.102;2022-07-23T04:17:11;21.80;99.90
27890;DHT22;15238;49.082;9.102;2022-07-23T04:19:11;21.80;99.90
27890;DHT22;15238;49.082;9.102;2022-07-23T04:21:12;21.80;99.90
27890;DHT22;15238;49.082;9.102;2022-07-23T04:23:13;21.70;99.90
27890;DHT22;15238;49.082;9.102;2022-07-23T04:25:13;21.70;99.90
27890;DHT22;15238;49.082;9.102;2022-07-23T04:27:16;21.70;99.90
27890;DHT22;15238;49.082;9.102;2022-07-23T04:29:17;21.70;99.90
27890;DHT22;15238;49.082;9.102;2022-07-23T04:31:18;21.70;99.90
27890;DHT22;15238;49.082;9.102;2022-07-23T04:33:18;21.70;99.90
27890;DHT22;15238;49.082;9.102;2022-07-23T04:35:19;21.80;99.90
27890;DHT22;15238;49.082;9.102;2022-07-23T04:37:20;21.80;99.90
27890;DHT22;15238;49.082;9.102;2022-07-23T04:39:21;21.90;99.90
27890;DHT22;15238;49.082;9.102;2022-07-23T04:41:21;21.90;99.90
27890;DHT22;15238;49.082;9.102;2022-07-23T04:43:22;21.90;99.90
27890;DHT22;15238;49.082;9.102;2022-07-23T04:45:22;22.00;99.90
27890;DHT22;15238;49.082;9.102;2022-07-23T04:47:26;22.00;99.90
27890;DHT22;15238;49.082;9.102;2022-07-23T04:49:26;22.00;99.90
27890;DHT22;15238;49.082;9.102;2022-07-23T04:51:27;22.00;99.90
27890;DHT22;15238;49.082;9.102;2022-07-23T04:53:29;21.90;99.90
27890;DHT22;15238;49.082;9.102;2022-07-23T04:55:30;22.00;99.90
27890;DHT22;15238;49.082;9.102;2022-07-23T04:57:30;22.00;99.90
27890;DHT22;15238;49.082;9.102;2022-07-23T04:59:31;22.00;99.90
27890;DHT22;15238;49.082;9.102;2022-07-23T05:01:31;22.00;99.90
27890;DHT22;15238;49.082;9.102;2022-07-23T05:03:32;22.10;99.90
27890;DHT22;15238;49.082;9.102;2022-07-23T05:05:33;22.20;99.90
27890;DHT22;15238;49.082;9.102;2022-07-23T05:07:33;22.10;99.90
27890;DHT22;15238;49.082;9.102;2022-07-23T05:09:34;22.00;99.90
27890;DHT22;15238;49.082;9.102;2022-07-23T05:11:34;22.00;99.90
27890;DHT22;15238;49.082;9.102;2022-07-23T05:13:35;21.90;99.90
27890;DHT22;15238;49.082;9.102;2022-07-23T05:15:35;22.00;99.90
27890;DHT22;15238;49.082;9.102;2022-07-23T05:17:36;22.00;99.90
27890;DHT22;15238;49.082;9.102;2022-07-23T05:19:36;22.10;99.90
27890;DHT22;15238;49.082;9.102;2022-07-23T05:21:37;22.10;99.90
27890;DHT22;15238;49.082;9.102;2022-07-23T05:23:37;22.20;99.90
27890;DHT22;15238;49.082;9.102;2022-07-23T05:25:39;22.20;99.90
27890;DHT22;15238;49.082;9.102;2022-07-23T05:27:39;22.30;99.90
27890;DHT22;15238;49.082;9.102;2022-07-23T05:29:40;22.20;99.90
27890;DHT22;15238;49.082;9.102;2022-07-23T05:31:40;22.20;99.90
27890;DHT22;15238;49.082;9.102;2022-07-23T05:33:41;22.10;99.90
27890;DHT22;15238;49.082;9.102;2022-07-23T05:35:41;22.20;99.90
27890;DHT22;15238;49.082;9.102;2022-07-23T05:37:42;22.20;99.90
27890;DHT22;15238;49.082;9.102;2022-07-23T05:39:42;22.10;99.90
27890;DHT22;15238;49.082;9.102;2022-07-23T05:41:43;22.00;99.90
27890;DHT22;15238;49.082;9.102;2022-07-23T05:43:43;21.90;99.90
27890;DHT22;15238;49.082;9.102;2022-07-23T05:45:44;21.90;99.90
27890;DHT22;15238;49.082;9.102;2022-07-23T05:47:49;21.90;99.90
27890;DHT22;15238;49.082;9.102;2022-07-23T05:49:50;21.80;99.90
27890;DHT22;15238;49.082;9.102;2022-07-23T05:51:50;21.80;99.90
27890;DHT22;15238;49.082;9.102;2022-07-23T05:53:52;21.80;99.90
27890;DHT22;15238;49.082;9.102;2022-07-23T05:55:52;21.80;99.90
27890;DHT22;15238;49.082;9.102;2022-07-23T05:57:53;21.80;99.90
27890;DHT22;15238;49.082;9.102;2022-07-23T05:59:53;21.80;99.90
27890;DHT22;15238;49.082;9.102;2022-07-23T06:01:54;21.70;99.90
27890;DHT22;15238;49.082;9.102;2022-07-23T06:03:54;21.50;99.90
27890;DHT22;15238;49.082;9.102;2022-07-23T06:05:55;21.30;99.90
27890;DHT22;15238;49.082;9.102;2022-07-23T06:07:55;21.10;99.90
27890;DHT22;15238;49.082;9.102;2022-07-23T06:09:56;21.00;99.90
27890;DHT22;15238;49.082;9.102;2022-07-23T06:11:56;20.80;99.90
27890;DHT22;15238;49.082;9.102;2022-07-23T06:13:57;20.70;99.90
27890;DHT22;15238;49.082;9.102;2022-07-23T06:15:57;20.50;99.90
27890;DHT22;15238;49.082;9.102;2022-07-23T06:17:58;20.40;99.90
27890;DHT22;15238;49.082;9.102;2022-07-23T06:19:58;20.40;99.90
27890;DHT22;15238;49.082;9.102;2022-07-23T06:21:59;20.40;99.90
27890;DHT22;15238;49.082;9.102;2022-07-23T06:23:59;20.40;99.90
27890;DHT22;15238;49.082;9.102;2022-07-23T06:26:00;20.40;99.90
27890;DHT22;15238;49.082;9.102;2022-07-23T06:28:00;20.50;99.90
27890;DHT22;15238;49.082;9.102;2022-07-23T06:30:01;20.50;99.90
27890;DHT22;15238;49.082;9.102;2022-07-23T06:32:02;20.60;99.90
27890;DHT22;15238;49.082;9.102;2022-07-23T06:34:02;20.60;99.90
27890;DHT22;15238;49.082;9.102;2022-07-23T06:36:03;20.60;99.90
27890;DHT22;15238;49.082;9.102;2022-07-23T06:38:04;20.60;99.90
27890;DHT22;15238;49.082;9.102;2022-07-23T06:40:05;20.70;99.90
27890;DHT22;15238;49.082;9.102;2022-07-23T06:42:05;20.80;99.90
27890;DHT22;15238;49.082;9.102;2022-07-23T06:44:06;20.80;99.90
27890;DHT22;15238;49.082;9.102;2022-07-23T06:46:07;20.90;99.90
27890;DHT22;15238;49.082;9.102;2022-07-23T06:48:07;21.00;99.90
27890;DHT22;15238;49.082;9.102;2022-07-23T06:50:08;21.00;99.90
27890;DHT22;15238;49.082;9.102;2022-07-23T06:52:09;20.90;99.90
27890;DHT22;15238;49.082;9.102;2022-07-23T06:54:09;20.70;99.90
27890;DHT22;15238;49.082;9.102;2022-07-23T06:56:10;20.50;99.90
27890;DHT22;15238;49.082;9.102;2022-07-23T06:58:10;20.30;99.90
27890;DHT22;15238;49.082;9.102;2022-07-23T07:00:11;20.20;99.90
27890;DHT22;15238;49.082;9.102;2022-07-23T07:02:12;20.00;99.90
27890;DHT22;15238;49.082;9.102;2022-07-23T07:04:12;20.10;99.90
27890;DHT22;15238;49.082;9.102;2022-07-23T07:06:13;20.10;99.90
27890;DHT22;15238;49.082;9.102;2022-07-23T07:08:14;20.00;99.90
27890;DHT22;15238;49.082;9.102;2022-07-23T07:10:14;20.00;99.90
27890;DHT22;15238;49.082;9.102;2022-07-23T07:12:16;20.00;99.90
27890;DHT22;15238;49.082;9.102;2022-07-23T07:14:17;20.00;99.90
27890;DHT22;15238;49.082;9.102;2022-07-23T07:16:17;20.00;99.90
27890;DHT22;15238;49.082;9.102;2022-07-23T07:18:18;20.10;99.90
27890;DHT22;15238;49.082;9.102;2022-07-23T07:20:19;20.10;99.90
27890;DHT22;15238;49.082;9.102;2022-07-23T07:22:19;20.30;99.90
27890;DHT22;15238;49.082;9.102;2022-07-23T07:24:20;20.30;99.90
27890;DHT22;15238;49.082;9.102;2022-07-23T07:26:20;20.50;99.90
27890;DHT22;15238;49.082;9.102;2022-07-23T07:28:21;20.60;99.90
27890;DHT22;15238;49.082;9.102;2022-07-23T07:30:21;20.70;99.90
27890;DHT22;15238;49.082;9.102;2022-07-23T07:32:22;20.80;99.90
27890;DHT22;15238;49.082;9.102;2022-07-23T07:34:22;20.80;99.90
27890;DHT22;15238;49.082;9.102;2022-07-23T07:36:23;20.80;99.90
27890;DHT22;15238;49.082;9.102;2022-07-23T07:38:24;20.90;99.90
27890;DHT22;15238;49.082;9.102;2022-07-23T07:40:25;20.90;99.90
27890;DHT22;15238;49.082;9.102;2022-07-23T07:42:26;21.00;99.90
27890;DHT22;15238;49.082;9.102;2022-07-23T07:44:26;21.20;99.90
27890;DHT22;15238;49.082;9.102;2022-07-23T07:46:27;21.30;99.90
27890;DHT22;15238;49.082;9.102;2022-07-23T07:48:28;21.50;99.90
27890;DHT22;15238;49.082;9.102;2022-07-23T07:50:28;21.50;99.90
27890;DHT22;15238;49.082;9.102;2022-07-23T07:52:29;21.70;99.90
27890;DHT22;15238;49.082;9.102;2022-07-23T07:54:29;21.80;99.90
27890;DHT22;15238;49.082;9.102;2022-07-23T07:56:30;21.80;99.90
27890;DHT22;15238;49.082;9.102;2022-07-23T07:58:30;21.90;99.90
27890;DHT22;15238;49.082;9.102;2022-07-23T08:00:31;22.00;99.90
27890;DHT22;15238;49.082;9.102;2022-07-23T08:02:51;21.90;99.90
27890;DHT22;15238;49.082;9.102;2022-07-23T08:04:52;21.80;99.90
27890;DHT22;15238;49.082;9.102;2022-07-23T08:06:52;21.80;99.90
27890;DHT22;15238;49.082;9.102;2022-07-23T08:08:53;21.70;99.90
27890;DHT22;15238;49.082;9.102;2022-07-23T08:10:53;21.60;99.90
27890;DHT22;15238;49.082;9.102;2022-07-23T08:12:55;21.50;99.90
27890;DHT22;15238;49.082;9.102;2022-07-23T08:14:56;21.40;99.90
27890;DHT22;15238;49.082;9.102;2022-07-23T08:16:57;21.40;99.90
27890;DHT22;15238;49.082;9.102;2022-07-23T08:18:57;21.50;99.90
27890;DHT22;15238;49.082;9.102;2022-07-23T08:20:58;21.50;99.90
27890;DHT22;15238;49.082;9.102;2022-07-23T08:23:02;21.60;99.90
27890;DHT22;15238;49.082;9.102;2022-07-23T08:25:04;21.60;99.90
27890;DHT22;15238;49.082;9.102;2022-07-23T08:27:04;21.80;99.90
27890;DHT22;15238;49.082;9.102;2022-07-23T08:29:05;21.90;99.90
27890;DHT22;15238;49.082;9.102;2022-07-23T08:31:06;21.90;99.90
27890;DHT22;15238;49.082;9.102;2022-07-23T08:33:08;21.90;99.90
27890;DHT22;15238;49.082;9.102;2022-07-23T08:35:11;22.00;99.90
27890;DHT22;15238;49.082;9.102;2022-07-23T08:37:12;21.90;99.90
27890;DHT22;15238;49.082;9.102;2022-07-23T08:39:12;22.00;99.90
27890;DHT22;15238;49.082;9.102;2022-07-23T08:41:13;22.00;99.90
27890;DHT22;15238;49.082;9.102;2022-07-23T08:43:21;22.00;99.90
27890;DHT22;15238;49.082;9.102;2022-07-23T08:45:24;22.00;99.90
27890;DHT22;15238;49.082;9.102;2022-07-23T08:47:25;22.00;99.90
27890;DHT22;15238;49.082;9.102;2022-07-23T08:49:26;22.00;99.90
27890;DHT22;15238;49.082;9.102;2022-07-23T08:51:27;22.10;99.90
27890;DHT22;15238;49.082;9.102;2022-07-23T08:53:29;22.10;99.90
27890;DHT22;15238;49.082;9.102;2022-07-23T08:55:30;22.00;99.90
27890;DHT22;15238;49.082;9.102;2022-07-23T08:57:31;21.90;99.90
27890;DHT22;15238;49.082;9.102;2022-07-23T08:59:31;22.10;99.90
27890;DHT22;15238;49.082;9.102;2022-07-23T09:01:32;22.20;99.90
27890;DHT22;15238;49.082;9.102;2022-07-23T09:03:35;22.20;99.90
27890;DHT22;15238;49.082;9.102;2022-07-23T09:05:36;22.20;99.90
27890;DHT22;15238;49.082;9.102;2022-07-23T09:07:38;22.30;99.90
27890;DHT22;15238;49.082;9.102;2022-07-23T09:10:09;22.40;99.90
27890;DHT22;15238;49.082;9.102;2022-07-23T09:12:11;22.40;99.90
27890;DHT22;15238;49.082;9.102;2022-07-23T09:14:11;22.50;99.90
27890;DHT22;15238;49.082;9.102;2022-07-23T09:16:19;22.60;99.90
27890;DHT22;15238;49.082;9.102;2022-07-23T09:18:35;22.60;99.90
27890;DHT22;15238;49.082;9.102;2022-07-23T09:20:38;22.70;99.90
27890;DHT22;15238;49.082;9.102;2022-07-23T09:22:40;23.00;99.90
27890;DHT22;15238;49.082;9.102;2022-07-23T09:27:04;24.00;99.90
27890;DHT22;15238;49.082;9.102;2022-07-23T09:29:17;24.20;99.90
27890;DHT22;15238;49.082;9.102;2022-07-23T09:31:18;24.30;99.90
27890;DHT22;15238;49.082;9.102;2022-07-23T09:33:19;24.50;99.90
27890;DHT22;15238;49.082;9.102;2022-07-23T09:35:20;24.50;99.90
27890;DHT22;15238;49.082;9.102;2022-07-23T09:37:21;24.70;99.90
27890;DHT22;15238;49.082;9.102;2022-07-23T09:39:34;24.90;99.90
27890;DHT22;15238;49.082;9.102;2022-07-23T09:41:40;25.20;99.90
27890;DHT22;15238;49.082;9.102;2022-07-23T09:43:41;25.20;99.90
27890;DHT22;15238;49.082;9.102;2022-07-23T09:45:41;25.20;99.90
27890;DHT22;15238;49.082;9.102;2022-07-23T09:47:42;25.20;99.90
27890;DHT22;15238;49.082;9.102;2022-07-23T09:52:03;25.60;99.90
27890;DHT22;15238;49.082;9.102;2022-07-23T09:54:04;25.60;99.90
27890;DHT22;15238;49.082;9.102;2022-07-23T09:56:06;25.80;99.90
27890;DHT22;15238;49.082;9.102;2022-07-23T09:58:07;25.90;99.90
27890;DHT22;15238;49.082;9.102;2022-07-23T10:00:14;26.00;99.90
27890;DHT22;15238;49.082;9.102;2022-07-23T10:02:14;25.90;99.90
27890;DHT22;15238;49.082;9.102;2022-07-23T10:04:15;25.80;99.90
27890;DHT22;15238;49.082;9.102;2022-07-23T10:06:16;26.00;99.90
27890;DHT22;15238;49.082;9.102;2022-07-23T10:08:18;25.80;99.90
27890;DHT22;15238;49.082;9.102;2022-07-23T10:10:21;25.70;99.90
27890;DHT22;15238;49.082;9.102;2022-07-23T10:12:22;26.00;99.90
27890;DHT22;15238;49.082;9.102;2022-07-23T10:14:40;26.20;99.90
27890;DHT22;15238;49.082;9.102;2022-07-23T10:16:41;26.70;99.90
27890;DHT22;15238;49.082;9.102;2022-07-23T10:18:42;27.00;99.90
27890;DHT22;15238;49.082;9.102;2022-07-23T10:20:43;26.90;99.90
27890;DHT22;15238;49.082;9.102;2022-07-23T10:23:10;26.80;99.90
27890;DHT22;15238;49.082;9.102;2022-07-23T10:37:28;27.10;99.70
27890;DHT22;15238;49.082;9.102;2022-07-23T10:39:34;27.30;99.90
27890;DHT22;15238;49.082;9.102;2022-07-23T10:41:37;27.40;99.90
27890;DHT22;15238;49.082;9.102;2022-07-23T10:43:39;27.60;99.00
27890;DHT22;15238;49.082;9.102;2022-07-23T10:45:39;27.40;99.90
27890;DHT22;15238;49.082;9.102;2022-07-23T10:47:40;27.60;99.90
27890;DHT22;15238;49.082;9.102;2022-07-23T10:49:41;27.70;99.70
27890;DHT22;15238;49.082;9.102;2022-07-23T10:54:21;28.00;97.90
27890;DHT22;15238;49.082;9.102;2022-07-23T10:58:51;28.20;98.00
27890;DHT22;15238;49.082;9.102;2022-07-23T11:00:53;28.50;97.80
27890;DHT22;15238;49.082;9.102;2022-07-23T11:02:56;28.60;97.30
27890;DHT22;15238;49.082;9.102;2022-07-23T11:05:02;28.40;96.90
27890;DHT22;15238;49.082;9.102;2022-07-23T11:09:24;28.80;95.20
27890;DHT22;15238;49.082;9.102;2022-07-23T11:11:25;28.80;94.70
27890;DHT22;15238;49.082;9.102;2022-07-23T11:15:29;28.40;94.00
27890;DHT22;15238;49.082;9.102;2022-07-23T11:17:38;28.50;94.10
27890;DHT22;15238;49.082;9.102;2022-07-23T11:22:55;28.40;94.60
27890;DHT22;15238;49.082;9.102;2022-07-23T11:24:55;28.40;92.90
27890;DHT22;15238;49.082;9.102;2022-07-23T11:27:01;28.50;93.10
27890;DHT22;15238;49.082;9.102;2022-07-23T11:31:37;28.30;92.40
27890;DHT22;15238;49.082;9.102;2022-07-23T11:33:37;28.20;92.60
27890;DHT22;15238;49.082;9.102;2022-07-23T11:35:40;28.50;92.50
27890;DHT22;15238;49.082;9.102;2022-07-23T11:37:41;28.60;93.20
27890;DHT22;15238;49.082;9.102;2022-07-23T11:39:42;28.80;93.40
27890;DHT22;15238;49.082;9.102;2022-07-23T11:41:46;28.80;93.00
27890;DHT22;15238;49.082;9.102;2022-07-23T11:43:47;28.80;92.20
27890;DHT22;15238;49.082;9.102;2022-07-23T11:45:51;28.70;93.10
27890;DHT22;15238;49.082;9.102;2022-07-23T11:47:52;28.40;92.20
27890;DHT22;15238;49.082;9.102;2022-07-23T11:49:58;28.30;92.40
27890;DHT22;15238;49.082;9.102;2022-07-23T11:52:11;28.50;91.70
27890;DHT22;15238;49.082;9.102;2022-07-23T11:54:12;28.70;87.50
27890;DHT22;15238;49.082;9.102;2022-07-23T11:56:13;28.60;88.50
27890;DHT22;15238;49.082;9.102;2022-07-23T11:58:13;28.70;90.50
27890;DHT22;15238;49.082;9.102;2022-07-23T12:00:16;28.80;91.00
27890;DHT22;15238;49.082;9.102;2022-07-23T12:02:19;28.90;91.00
27890;DHT22;15238;49.082;9.102;2022-07-23T12:04:19;29.10;90.00
27890;DHT22;15238;49.082;9.102;2022-07-23T12:06:20;29.20;89.90
27890;DHT22;15238;49.082;9.102;2022-07-23T12:08:20;29.30;90.30
27890;DHT22;15238;49.082;9.102;2022-07-23T12:10:22;29.40;86.60
27890;DHT22;15238;49.082;9.102;2022-07-23T12:12:23;29.40;85.30
27890;DHT22;15238;49.082;9.102;2022-07-23T12:14:24;29.50;83.80
27890;DHT22;15238;49.082;9.102;2022-07-23T12:16:24;29.50;84.70
27890;DHT22;15238;49.082;9.102;2022-07-23T12:18:26;29.70;85.50
27890;DHT22;15238;49.082;9.102;2022-07-23T12:20:34;29.50;83.90
27890;DHT22;15238;49.082;9.102;2022-07-23T12:22:44;29.50;82.50
27890;DHT22;15238;49.082;9.102;2022-07-23T12:24:58;29.20;83.70
27890;DHT22;15238;49.082;9.102;2022-07-23T12:27:08;29.00;84.90
27890;DHT22;15238;49.082;9.102;2022-07-23T12:29:10;28.60;85.90
27890;DHT22;15238;49.082;9.102;2022-07-23T12:31:10;28.70;88.20
27890;DHT22;15238;49.082;9.102;2022-07-23T12:33:20;28.90;88.40
27890;DHT22;15238;49.082;9.102;2022-07-23T12:35:23;29.20;86.30
27890;DHT22;15238;49.082;9.102;2022-07-23T12:37:27;29.10;85.10
27890;DHT22;15238;49.082;9.102;2022-07-23T12:39:31;29.00;85.50
27890;DHT22;15238;49.082;9.102;2022-07-23T12:41:50;29.10;86.00
27890;DHT22;15238;49.082;9.102;2022-07-23T12:43:51;29.20;87.80
27890;DHT22;15238;49.082;9.102;2022-07-23T12:45:54;29.20;85.70
27890;DHT22;15238;49.082;9.102;2022-07-23T12:48:05;29.20;87.00
27890;DHT22;15238;49.082;9.102;2022-07-23T12:50:07;29.30;85.50
27890;DHT22;15238;49.082;9.102;2022-07-23T12:52:16;29.50;85.50
27890;DHT22;15238;49.082;9.102;2022-07-23T12:54:17;29.60;85.80
27890;DHT22;15238;49.082;9.102;2022-07-23T12:56:30;29.60;84.00
27890;DHT22;15238;49.082;9.102;2022-07-23T12:58:44;29.80;84.60
27890;DHT22;15238;49.082;9.102;2022-07-23T13:00:59;29.80;80.40
27890;DHT22;15238;49.082;9.102;2022-07-23T13:03:00;29.90;80.50
27890;DHT22;15238;49.082;9.102;2022-07-23T13:05:01;30.20;79.10
27890;DHT22;15238;49.082;9.102;2022-07-23T13:07:01;30.30;77.30
27890;DHT22;15238;49.082;9.102;2022-07-23T13:09:05;30.10;77.80
27890;DHT22;15238;49.082;9.102;2022-07-23T13:11:06;29.90;77.20
27890;DHT22;15238;49.082;9.102;2022-07-23T13:13:10;29.60;77.40
27890;DHT22;15238;49.082;9.102;2022-07-23T13:15:11;29.60;76.70
27890;DHT22;15238;49.082;9.102;2022-07-23T13:17:11;29.60;78.30
27890;DHT22;15238;49.082;9.102;2022-07-23T13:19:12;29.90;77.00
27890;DHT22;15238;49.082;9.102;2022-07-23T13:21:13;29.90;77.90